Dushanbe Airport
UTDD : now visible

Airfield :











YOU CAN JOIN US ON...

 
LOGIN :

Register | Disclaimer

   EN    FR    IT 

 









Legend :    VFR   Marginal VFR   IFR   Intensive IFR   Very Intensive IFR
Visi :
Ceiling :
>= 8 km
>= 3000ft
5 to 8 km
1000 to 3000 ft
1500m to 5 km
500 to 1000 ft
800 to 1500m
200 to 500 ft
< 800m
< 200 ft
Symbols :   Thunderstorms  Fog  Heavy snow  Heavy precipitations  Wind > 20 kt






- Airport Elevation : 2575 ft
- IATA code : DYU


UTDD - Dushanbe

CURRENT METAR :
  • 080200Z 21006MPS 9999 FEW066CB 21/12 Q1008 R09/D TEMPO VRB08MPS TS RMK QFE688/0918

EXPIRED METARs :
  • 080130Z 00000MPS 9999 FEW066 21/14 Q1008 R09/D NOSIG RMK QFE688/0917
  • 080100Z 00000MPS 9999 FEW066 22/11 Q1007 R09/D NOSIG RMK QFE688/0917
  • 080030Z 00000MPS 9999 FEW066 21/11 Q1007 R09/D NOSIG RMK QFE687/0916
  • 080000Z 03002MPS 9999 FEW066 21/10 Q1007 R09/D NOSIG RMK QFE687/0916
  • 072330Z VRB01MPS 9999 NSC 20/10 Q1006 R09/CLRD// NOSIG RMK QFE687/0916

TAF AMD TAF UTDD
Valid from the 08 at 01:00 until the 08 at 13:00 UTC


080156Z 0801/0813 VRB02MPS 6000 SCT020 BKN050CB OVC100
TEMPO 0801/0813 VRB08G13MPS 3100 TS HZ
UTDD FIR / Asia



MET'MAP, your aeronautical weather chart ! - Copyright ORBIFLY December 2007 - Disclaimer

ORBIFLY MET'MAP TEAM :

Programming & Development : Alexandra Zaïnal
Concept & original design : Baudouin d'Aumeries
Assistance for programming : Marc-Olivier Méhu
Technical & hardware support : Manuel Goepfert

Contact : metmap@orbifly.com




SOURCES & CREDITS :

   NOAA       Earth
Advisory